Time;durP1;ratioP1;P1;durP2;ratioP2;P2;SDS_P1;SDS_P2;PMS_P1;PMS_P2;Temp;Humidity;BMP_temperature;BMP_pressure;BME280_temperature;BME280_humidity;BME280_pressure;Samples;Min_cycle;Max_cycle;Signal;HPM_P1;HPM_P2
2023/04/13 00:03:36;;;;;;;2.30;2.07;;;;;;;9.48;46.70;98663.53;10343556;28;20240;-70
2023/04/13 00:08:37;;;;;;;2.83;2.03;;;;;;;9.22;46.59;98625.13;10347658;28;20261;-69
2023/04/13 00:13:46;;;;;;;2.07;1.87;;;;;;;10.76;44.77;98740.75;10348634;28;20739;-69
2023/04/13 00:18:49;;;;;;;4.90;2.20;;;;;;;9.55;45.74;98659.03;10354054;28;20248;-69
2023/04/13 00:23:52;;;;;;;1.97;1.80;;;;;;;9.38;45.09;98635.41;10351820;28;20763;-69
2023/04/13 00:28:53;;;;;;;3.37;2.57;;;;;;;9.87;44.95;98662.75;10349958;28;20753;-69
2023/04/13 00:33:55;;;;;;;2.43;2.00;;;;;;;8.78;45.51;98570.44;10351473;28;20230;-68
2023/04/13 00:38:57;;;;;;;2.47;2.30;;;;;;;8.78;45.31;98565.91;10351678;28;20291;-69
2023/04/13 00:43:59;;;;;;;2.00;1.90;;;;;;;9.44;44.91;98624.94;10350006;28;20231;-70
2023/04/13 00:49:02;;;;;;;2.50;2.30;;;;;;;9.58;44.77;98626.56;10353025;28;20267;-69
2023/04/13 00:54:03;;;;;;;6.17;2.00;;;;;;;8.32;46.41;98501.81;10353775;28;20238;-70
2023/04/13 00:59:06;;;;;;;3.03;2.20;;;;;;;8.91;46.38;98570.50;10351904;28;20243;-69
2023/04/13 01:04:08;;;;;;;1.90;1.80;;;;;;;8.36;46.82;98541.19;10352452;28;20272;-70
2023/04/13 01:09:43;;;;;;;3.03;1.93;;;;;;;7.05;48.96;98426.63;10351165;28;20798;-70
2023/04/13 01:14:55;;;;;;;2.90;2.07;;;;;;;7.91;48.75;98525.66;10342690;28;20288;-70
2023/04/13 01:20:00;;;;;;;3.67;2.40;;;;;;;7.31;49.39;98498.66;10352659;28;21569;-69
2023/04/13 01:25:21;;;;;;;3.83;2.37;;;;;;;7.40;49.48;98486.00;10348464;28;20245;-70
2023/04/13 01:30:27;;;;;;;2.63;2.43;;;;;;;7.24;50.06;98478.31;10348516;28;20333;-70
2023/04/13 01:35:29;;;;;;;6.13;3.50;;;;;;;8.06;48.43;98568.13;10351307;28;20612;-69
2023/04/13 01:40:33;;;;;;;2.50;2.30;;;;;;;6.61;50.23;98421.34;10351475;28;20288;-69
2023/04/13 01:45:45;;;;;;;9.70;4.27;;;;;;;7.43;49.45;98506.91;10350354;28;20233;-68
2023/04/13 01:51:07;;;;;;;2.20;2.00;;;;;;;7.26;49.82;98519.69;10348502;28;20229;-69
2023/04/13 01:56:11;;;;;;;3.10;2.90;;;;;;;7.66;49.63;98559.91;10348205;28;20589;-70
2023/04/13 02:01:13;;;;;;;3.47;3.17;;;;;;;7.26;50.56;98527.69;10351364;28;20604;-69
2023/04/13 02:06:16;;;;;;;2.30;2.10;;;;;;;7.92;50.54;98585.06;10347859;28;20237;-69
2023/04/13 02:11:18;;;;;;;2.83;2.27;;;;;;;7.06;51.80;98495.59;10348822;28;20625;-69
2023/04/13 02:16:20;;;;;;;2.33;2.20;;;;;;;9.24;48.84;98640.94;10346417;28;20233;-70
2023/04/13 02:21:21;;;;;;;2.70;2.40;;;;;;;8.34;49.54;98599.22;10348183;28;20238;-68
2023/04/13 02:26:24;;;;;;;4.00;2.33;;;;;;;8.56;49.39;98631.09;10346373;28;20253;-68
2023/04/13 02:31:26;;;;;;;3.40;2.70;;;;;;;9.22;48.04;98641.94;10349473;28;20233;-70
2023/04/13 02:36:28;;;;;;;2.47;2.27;;;;;;;8.78;49.35;98621.94;10345567;28;20235;-69
2023/04/13 02:41:30;;;;;;;2.37;2.17;;;;;;;8.28;50.29;98600.81;10348285;28;20720;-69
2023/04/13 02:46:32;;;;;;;2.63;2.13;;;;;;;9.11;48.68;98641.72;10345736;28;20753;-69
2023/04/13 02:51:34;;;;;;;2.80;2.60;;;;;;;8.27;49.30;98580.53;10349177;28;20229;-69
2023/04/13 02:56:36;;;;;;;2.40;2.20;;;;;;;9.81;46.29;98665.41;10346690;28;20760;-70
2023/04/13 03:01:38;;;;;;;2.37;2.20;;;;;;;8.36;48.17;98596.34;10344598;28;20471;-69
2023/04/13 03:06:43;;;;;;;2.43;1.93;;;;;;;7.75;48.07;98579.19;10326481;28;20238;-70
2023/04/13 03:11:44;;;;;;;2.90;2.50;;;;;;;8.91;47.19;98666.53;10324507;28;20264;-69
2023/04/13 03:16:50;;;;;;;2.30;2.10;;;;;;;8.53;46.84;98618.16;10347892;28;20233;-69
2023/04/13 03:21:52;;;;;;;5.93;2.37;;;;;;;8.65;46.50;98665.38;10348885;28;20237;-68
2023/04/13 03:26:56;;;;;;;2.40;2.20;;;;;;;9.56;45.55;98701.56;10346439;28;20468;-69
2023/04/13 03:31:58;;;;;;;5.83;2.57;;;;;;;9.66;44.75;98690.47;10347119;28;20233;-70
2023/04/13 03:37:00;;;;;;;2.73;1.97;;;;;;;9.35;45.70;98686.53;10348775;28;20245;-69
2023/04/13 03:42:02;;;;;;;2.20;2.00;;;;;;;7.44;48.26;98526.34;10344005;28;20695;-70
2023/04/13 03:47:04;;;;;;;3.23;2.30;;;;;;;7.91;48.52;98584.25;10344106;28;20242;-69
2023/04/13 03:52:06;;;;;;;3.53;2.27;;;;;;;8.15;47.94;98635.41;10354561;28;20241;-69
2023/04/13 03:57:08;;;;;;;5.80;2.30;;;;;;;8.27;47.93;98649.00;10357079;28;20236;-69
2023/04/13 04:02:09;;;;;;;2.90;2.70;;;;;;;7.77;48.82;98577.16;10355008;28;20756;-66
2023/04/13 04:07:11;;;;;;;3.60;2.17;;;;;;;7.83;48.82;98615.50;10345932;28;20888;-69
2023/04/13 04:12:13;;;;;;;2.97;2.30;;;;;;;7.83;49.62;98612.84;10353677;28;20244;-69
2023/04/13 04:17:15;;;;;;;6.63;2.43;;;;;;;7.92;49.87;98614.38;10281944;28;20230;-66
2023/04/13 04:22:16;;;;;;;5.97;2.40;;;;;;;7.85;48.87;98634.81;10341237;28;20236;-67
2023/04/13 04:27:18;;;;;;;3.87;2.70;;;;;;;8.50;48.05;98679.88;10344436;28;20229;-68
2023/04/13 04:32:22;;;;;;;3.37;2.13;;;;;;;8.60;46.77;98664.31;10356618;28;20229;-67
2023/04/13 04:37:24;;;;;;;3.00;2.33;;;;;;;8.83;46.47;98686.16;10349575;28;20244;-68
2023/04/13 04:42:26;;;;;;;2.87;2.43;;;;;;;7.78;48.26;98628.56;10355342;28;20731;-68
2023/04/13 04:47:29;;;;;;;7.80;2.53;;;;;;;8.26;47.00;98648.16;10358376;28;20232;-68
2023/04/13 04:52:31;;;;;;;2.47;2.27;;;;;;;9.91;45.13;98733.47;10353872;28;20226;-68
2023/04/13 04:57:33;;;;;;;5.77;3.43;;;;;;;9.25;46.00;98727.97;10354740;28;20332;-68
2023/04/13 05:05:32;;;;;;;3.17;2.27;;;;;;;3.40;57.42;98370.00;10375147;28;20858;-67
2023/04/13 05:10:34;;;;;;;6.03;2.80;;;;;;;5.40;54.16;98688.19;10280044;28;20238;-66
2023/04/13 05:15:36;;;;;;;4.37;2.37;;;;;;;5.92;53.37;98758.31;10304640;28;20229;-66
2023/04/13 05:20:37;;;;;;;6.27;3.03;;;;;;;5.82;53.73;98766.53;10303927;28;20706;-66
2023/04/13 05:25:39;;;;;;;4.93;2.30;;;;;;;6.27;52.85;98830.41;10302936;28;20237;-67
2023/04/13 05:30:41;;;;;;;5.07;2.40;;;;;;;5.84;51.91;98786.59;10297979;28;20230;-67
2023/04/13 05:35:42;;;;;;;5.17;2.40;;;;;;;7.33;50.71;98898.47;10297722;28;20238;-67
2023/04/13 05:40:44;;;;;;;9.10;2.77;;;;;;;6.49;52.34;98857.94;10297588;28;20239;-67
2023/04/13 05:45:46;;;;;;;5.67;3.23;;;;;;;6.17;52.65;98812.06;10303224;28;20242;-67
2023/04/13 05:50:48;;;;;;;6.03;2.73;;;;;;;6.28;52.97;98838.19;10303853;28;20254;-67
2023/04/13 05:55:50;;;;;;;7.67;3.00;;;;;;;6.21;52.73;98838.09;10305718;28;20710;-66
2023/04/13 06:00:52;;;;;;;5.33;2.63;;;;;;;5.86;52.39;98816.44;10305824;28;20725;-67
2023/04/13 06:05:55;;;;;;;4.93;2.70;;;;;;;6.40;52.87;98859.84;10298662;28;20238;-69
2023/04/13 06:10:58;;;;;;;3.97;3.00;;;;;;;6.00;53.62;98817.50;10299146;28;20238;-67
2023/04/13 06:16:00;;;;;;;4.63;2.10;;;;;;;5.94;54.13;98807.59;10283218;28;20250;-66
2023/04/13 06:21:02;;;;;;;2.63;2.40;;;;;;;7.77;51.52;98941.19;10275105;28;20707;-67
2023/04/13 06:26:04;;;;;;;3.17;2.53;;;;;;;6.46;53.74;98879.56;10271325;28;20742;-66
2023/04/13 06:31:07;;;;;;;7.37;2.63;;;;;;;6.24;54.42;98861.66;10277240;28;20718;-66
2023/04/13 06:36:11;;;;;;;4.20;2.33;;;;;;;5.75;54.53;98855.84;10254094;28;20234;-67
2023/04/13 06:41:12;;;;;;;3.87;2.33;;;;;;;5.75;54.74;98839.91;10275138;28;20325;-66
2023/04/13 06:46:14;;;;;;;4.43;2.40;;;;;;;4.98;55.98;98738.03;10271034;28;20688;-67
2023/04/13 06:51:18;;;;;;;3.33;2.53;;;;;;;6.05;54.68;98867.44;10275532;28;20313;-67
2023/04/13 06:56:20;;;;;;;4.53;2.50;;;;;;;5.58;54.98;98825.91;10269369;28;20238;-66
2023/04/13 11:12:29;;;;;;;7.27;3.10;;;;;;;8.39;54.52;99095.31;10509042;28;20215;-68
2023/04/13 11:17:57;;;;;;;6.80;3.60;;;;;;;9.03;51.63;99120.44;10503857;28;20321;-69
2023/04/13 11:23:02;;;;;;;4.90;2.77;;;;;;;8.96;53.02;99058.16;10514121;28;20230;-68
2023/04/13 11:28:04;;;;;;;7.93;3.93;;;;;;;9.95;51.63;99135.56;10511345;28;20230;-68
2023/04/13 11:33:08;;;;;;;5.50;2.47;;;;;;;8.40;51.02;99021.47;10512018;28;20207;-68
2023/04/13 11:38:19;;;;;;;5.83;3.03;;;;;;;9.54;51.08;99095.41;10509202;28;20579;-69
2023/04/13 11:43:47;;;;;;;7.37;3.40;;;;;;;9.52;50.41;99095.59;10506203;28;20634;-68
2023/04/13 11:48:49;;;;;;;5.73;3.30;;;;;;;9.48;50.06;99075.63;10508981;28;20322;-68
2023/04/13 11:53:52;;;;;;;5.43;2.90;;;;;;;9.07;51.09;99049.63;10512269;28;20230;-68
2023/04/13 11:58:53;;;;;;;5.33;2.60;;;;;;;7.49;54.57;98949.84;10506337;28;20779;-68
2023/04/13 12:04:03;;;;;;;3.67;2.70;;;;;;;8.46;52.26;99029.53;10496593;28;20744;-68
2023/04/13 12:09:18;;;;;;;4.13;2.37;;;;;;;9.15;50.16;99052.16;10499568;28;20636;-68
2023/04/13 12:14:23;;;;;;;6.57;3.37;;;;;;;9.59;50.33;99071.59;10495828;28;20314;-68
2023/04/13 12:19:48;;;;;;;4.57;2.30;;;;;;;9.32;50.52;99049.22;9588259;28;10000798;-68
2023/04/13 12:24:54;;;;;;;4.63;2.70;;;;;;;9.90;49.09;99084.56;9557423;28;10000283;-68
2023/04/13 12:30:03;;;;;;;7.80;3.07;;;;;;;10.60;49.76;99124.56;10436835;28;20251;-69
2023/04/13 12:35:05;;;;;;;10.67;5.53;;;;;;;9.24;50.34;99012.00;10445730;28;20235;-68
2023/04/13 12:40:12;;;;;;;9.47;4.07;;;;;;;10.24;48.84;99098.94;10451065;28;20232;-69
2023/04/13 12:45:15;;;;;;;6.87;4.50;;;;;;;9.71;48.82;99058.53;10450325;28;20255;-68
2023/04/13 12:50:17;;;;;;;12.10;4.10;;;;;;;10.60;47.33;99115.75;9562346;28;10001008;-69
2023/04/13 12:55:18;;;;;;;8.93;4.87;;;;;;;11.31;46.52;99131.34;10451795;28;20289;-69
2023/04/13 13:00:20;;;;;;;7.93;4.47;;;;;;;11.30;48.10;99115.47;10441006;28;20239;-68
2023/04/13 13:05:22;;;;;;;7.93;3.10;;;;;;;9.68;49.28;98968.91;9552974;28;10000150;-68
2023/04/13 13:10:24;;;;;;;5.30;2.57;;;;;;;8.17;50.25;98883.03;10446121;28;20231;-69
2023/04/13 13:15:31;;;;;;;3.27;2.53;;;;;;;9.47;50.10;98985.84;10441821;28;20238;-69
2023/04/13 13:20:35;;;;;;;4.60;2.70;;;;;;;8.74;51.33;98924.78;10397406;28;20234;-71
2023/04/13 13:25:39;;;;;;;2.80;2.17;;;;;;;8.72;49.79;98939.31;10402280;28;20243;-68
2023/04/13 13:30:49;;;;;;;3.53;2.00;;;;;;;9.31;49.42;98978.16;10442135;28;20255;-68
2023/04/13 13:35:51;;;;;;;3.90;2.37;;;;;;;7.73;49.06;98853.69;10441241;28;20240;-68
2023/04/13 13:40:53;;;;;;;2.47;2.20;;;;;;;7.35;49.39;98866.34;10449578;28;20861;-67
2023/04/13 13:45:54;;;;;;;3.70;2.30;;;;;;;9.68;46.19;98973.44;10441979;28;20243;-68
2023/04/13 13:50:56;;;;;;;4.10;2.30;;;;;;;10.00;44.46;98989.84;10444503;28;20239;-68
2023/04/13 13:55:58;;;;;;;4.37;2.43;;;;;;;10.17;44.55;98977.75;10441469;28;20860;-69
2023/04/13 14:00:59;;;;;;;6.03;3.00;;;;;;;10.69;45.24;99023.53;10433308;28;20250;-68
2023/04/13 14:06:01;;;;;;;7.63;3.13;;;;;;;10.93;44.95;99038.19;10433769;28;20255;-68
2023/04/13 14:11:03;;;;;;;6.40;2.73;;;;;;;10.97;45.03;99052.84;10434038;28;20235;-66
2023/04/13 14:16:05;;;;;;;6.23;2.57;;;;;;;10.31;45.35;98990.13;10437243;28;20741;-66
2023/04/13 14:21:07;;;;;;;10.70;3.73;;;;;;;10.77;45.46;98985.91;10436148;28;20734;-71
2023/04/13 14:26:09;;;;;;;5.63;2.30;;;;;;;11.58;44.90;99056.31;10427150;28;20227;-73
2023/04/13 14:31:13;;;;;;;5.67;2.83;;;;;;;11.22;45.00;99004.00;10433690;28;20239;-73
2023/04/13 14:36:15;;;;;;;5.93;2.67;;;;;;;11.42;44.51;99004.81;10437170;28;20319;-72
2023/04/13 14:41:18;;;;;;;3.70;2.13;;;;;;;10.79;44.18;98943.72;10434198;28;20228;-74
2023/04/13 14:46:20;;;;;;;3.23;2.53;;;;;;;11.61;43.28;99007.66;10436193;28;20847;-72
2023/04/13 14:51:21;;;;;;;6.50;2.90;;;;;;;12.06;43.07;99033.72;10431346;28;20317;-74
2023/04/13 14:56:24;;;;;;;4.13;2.60;;;;;;;12.03;43.65;99016.22;10437114;28;20670;-71
2023/04/13 15:01:26;;;;;;;7.63;2.67;;;;;;;11.71;43.98;98989.31;10429661;28;20315;-72
2023/04/13 15:06:28;;;;;;;5.00;2.73;;;;;;;12.51;42.79;99028.38;10433609;28;20753;-73
2023/04/13 15:11:30;;;;;;;3.80;2.60;;;;;;;10.78;44.20;98896.59;10432132;28;20251;-72
2023/04/13 15:16:32;;;;;;;6.80;3.10;;;;;;;11.67;43.03;98973.88;10435765;28;20235;-74
2023/04/13 15:21:36;;;;;;;7.13;3.10;;;;;;;12.36;42.21;99004.50;10432622;28;20436;-74
2023/04/13 15:26:40;;;;;;;5.40;3.17;;;;;;;11.96;43.33;98969.81;10434626;28;20228;-73
2023/04/13 15:31:41;;;;;;;7.17;3.00;;;;;;;11.86;42.87;98950.69;10433960;28;20232;-74
2023/04/13 15:36:43;;;;;;;5.07;2.47;;;;;;;10.93;40.93;98888.31;10439020;28;20318;-76
2023/04/13 15:41:45;;;;;;;7.27;2.53;;;;;;;11.38;41.28;98922.41;10433366;28;20234;-71
2023/04/13 15:46:47;;;;;;;9.90;3.60;;;;;;;11.79;40.14;98961.44;10437946;28;20251;-71
2023/04/13 15:51:48;;;;;;;4.57;2.87;;;;;;;11.86;40.17;98951.53;10438013;28;20228;-70
2023/04/13 15:56:50;;;;;;;8.43;4.10;;;;;;;12.51;39.65;99002.38;10435176;28;20244;-72
2023/04/13 16:01:52;;;;;;;6.53;2.70;;;;;;;12.75;39.02;98994.56;10440858;28;20612;-71
2023/04/13 16:06:53;;;;;;;7.17;3.10;;;;;;;12.32;40.12;98958.50;10443599;28;20976;-72
2023/04/13 16:12:13;;;;;;;5.90;2.60;;;;;;;12.52;41.18;98958.41;10441284;28;20225;-74
2023/04/13 16:17:14;;;;;;;6.23;2.77;;;;;;;12.58;40.71;98942.47;10441873;28;20769;-73
2023/04/13 16:22:16;;;;;;;5.27;2.50;;;;;;;11.83;40.24;98892.16;10439881;28;20232;-73
2023/04/13 16:27:18;;;;;;;6.20;3.10;;;;;;;12.95;40.34;98978.31;10439764;28;20236;-75
2023/04/13 16:32:19;;;;;;;6.27;2.33;;;;;;;11.97;39.59;98894.53;10438410;28;20235;-75
2023/04/13 16:37:21;;;;;;;5.57;3.10;;;;;;;12.87;40.39;98959.78;10444256;28;20247;-74
2023/04/13 16:42:23;;;;;;;9.43;3.50;;;;;;;12.57;41.44;98906.78;10443689;28;20236;-77
2023/04/13 16:47:25;;;;;;;6.60;2.97;;;;;;;13.13;41.07;98947.16;10446216;28;20241;-70
2023/04/13 16:52:26;;;;;;;6.30;3.33;;;;;;;12.70;41.02;98903.13;10445501;28;20226;-73
2023/04/13 16:57:28;;;;;;;7.47;3.20;;;;;;;12.84;40.59;98903.81;10437794;28;20266;-75
2023/04/13 17:02:30;;;;;;;7.00;3.27;;;;;;;13.03;41.34;98902.00;10438938;28;20228;-78
2023/04/13 17:07:32;;;;;;;8.40;3.17;;;;;;;13.67;40.62;98932.94;10445295;28;20235;-76
2023/04/13 17:12:34;;;;;;;6.93;3.17;;;;;;;12.57;41.18;98838.84;10443271;28;20223;-73
2023/04/13 17:17:36;;;;;;;7.13;2.77;;;;;;;13.00;41.00;98868.34;10437325;28;20235;-68
2023/04/13 17:22:39;;;;;;;7.07;3.03;;;;;;;12.57;41.29;98818.22;10436893;28;20547;-70
2023/04/13 17:27:40;;;;;;;6.37;2.63;;;;;;;14.04;39.56;98910.53;10443079;28;20288;-72
2023/04/13 17:32:42;;;;;;;7.63;2.77;;;;;;;13.32;40.45;98856.69;10437289;28;20236;-68
2023/04/13 17:37:44;;;;;;;11.90;3.80;;;;;;;12.93;41.00;98836.19;10443968;28;21531;-70
2023/04/13 17:42:46;;;;;;;8.90;3.30;;;;;;;12.18;42.08;98780.75;10445891;28;20600;-73
2023/04/13 17:47:48;;;;;;;5.63;2.93;;;;;;;12.96;41.75;98839.47;10446311;28;20228;-70
2023/04/13 17:52:49;;;;;;;8.30;3.40;;;;;;;12.66;41.83;98822.22;10442432;28;20204;-75
2023/04/13 17:57:51;;;;;;;7.23;3.37;;;;;;;12.35;41.44;98804.31;10443211;28;20232;-72
2023/04/13 18:02:52;;;;;;;7.30;3.20;;;;;;;12.78;40.92;98851.03;10438297;28;20227;-72
2023/04/13 18:07:55;;;;;;;5.80;2.63;;;;;;;11.02;41.69;98717.59;10445351;28;20244;-74
2023/04/13 18:12:59;;;;;;;7.67;2.63;;;;;;;11.64;41.40;98833.06;10439853;28;20696;-75
2023/04/13 18:18:01;;;;;;;7.57;3.10;;;;;;;12.25;40.54;98863.00;10440120;28;20232;-70
2023/04/13 18:23:03;;;;;;;8.13;2.93;;;;;;;11.83;40.35;98827.81;10442646;28;20938;-75
2023/04/13 18:28:04;;;;;;;6.77;3.53;;;;;;;12.29;39.30;98858.88;10438477;28;20235;-76
2023/04/13 18:33:07;;;;;;;8.20;4.20;;;;;;;12.03;40.45;98816.97;10434909;28;20209;-75
2023/04/13 18:38:09;;;;;;;8.63;4.43;;;;;;;12.98;41.01;98888.44;10448508;28;20235;-74
2023/04/13 18:43:11;;;;;;;7.60;4.70;;;;;;;12.66;42.07;98848.25;10437242;28;20727;-69
2023/04/13 18:48:13;;;;;;;8.00;4.67;;;;;;;12.83;42.02;98862.75;10440617;28;20246;-70
2023/04/13 18:53:15;;;;;;;7.07;3.70;;;;;;;12.69;41.83;98845.94;10438474;28;20232;-69
2023/04/13 18:58:19;;;;;;;11.43;3.80;;;;;;;12.21;43.02;98832.31;10445633;28;20247;-71
2023/04/13 19:03:21;;;;;;;5.87;3.20;;;;;;;12.66;42.65;98859.81;10436100;28;20232;-69
2023/04/13 19:08:23;;;;;;;7.17;3.53;;;;;;;12.65;42.14;98855.47;10441172;28;20336;-73
2023/04/13 19:13:25;;;;;;;7.67;3.80;;;;;;;11.02;43.06;98747.88;10419134;28;20226;-72
2023/04/13 19:18:26;;;;;;;6.43;3.50;;;;;;;11.98;42.93;98845.25;10442283;28;20242;-71
2023/04/13 19:23:28;;;;;;;7.77;3.70;;;;;;;11.54;42.11;98811.25;10431982;28;20236;-74
2023/04/13 19:28:30;;;;;;;7.70;3.47;;;;;;;12.24;41.75;98878.28;10447478;28;20258;-72
2023/04/13 19:33:33;;;;;;;8.93;3.50;;;;;;;11.27;43.09;98830.13;10443715;28;20228;-73
2023/04/13 19:38:35;;;;;;;5.77;3.73;;;;;;;11.31;42.39;98831.38;10448244;28;20246;-73
2023/04/13 19:43:36;;;;;;;8.77;3.30;;;;;;;10.77;42.69;98795.09;10453018;28;20230;-75
2023/04/13 19:48:39;;;;;;;10.17;3.40;;;;;;;10.96;42.67;98810.25;10446055;28;20239;-72
2023/04/13 19:53:40;;;;;;;7.60;3.93;;;;;;;10.96;42.15;98822.84;10447552;28;20239;-74
2023/04/13 19:58:42;;;;;;;9.27;4.20;;;;;;;7.51;48.67;98533.38;10449226;28;20235;-74
2023/04/13 20:03:44;;;;;;;8.87;3.67;;;;;;;8.21;46.69;98692.44;10445616;28;20243;-75
2023/04/13 20:08:46;;;;;;;7.47;3.80;;;;;;;10.32;42.85;98843.88;10454835;28;20231;-74
2023/04/13 20:13:48;;;;;;;6.40;3.70;;;;;;;8.77;44.05;98747.50;10444709;28;20231;-73
2023/04/13 20:18:49;;;;;;;5.53;3.40;;;;;;;7.24;47.48;98580.28;10448288;28;20232;-75
2023/04/13 20:23:51;;;;;;;5.27;3.40;;;;;;;7.57;48.96;98672.88;10453175;28;20314;-75
2023/04/13 20:28:53;;;;;;;6.40;3.53;;;;;;;9.81;46.22;98873.81;10451673;28;20859;-77
2023/04/13 20:33:55;;;;;;;8.17;3.80;;;;;;;10.74;44.70;98875.75;10445451;28;20236;-74
2023/04/13 20:38:58;;;;;;;6.47;3.40;;;;;;;9.03;46.15;98802.88;10448325;28;20236;-77
2023/04/13 20:44:01;;;;;;;8.60;4.00;;;;;;;8.16;48.58;98748.97;10445427;28;20233;-75
2023/04/13 20:49:06;;;;;;;5.93;3.40;;;;;;;8.72;47.94;98825.44;10455560;28;20249;-73
2023/04/13 20:54:07;;;;;;;8.47;3.90;;;;;;;10.26;45.73;98888.31;10460006;28;20241;-79
2023/04/13 20:59:09;;;;;;;8.77;3.60;;;;;;;9.07;46.83;98829.97;10466918;28;20266;-79
2023/04/13 21:04:11;;;;;;;5.37;3.70;;;;;;;8.44;48.09;98783.63;10449264;28;20933;-79
2023/04/13 21:09:12;;;;;;;5.40;3.57;;;;;;;9.31;47.03;98868.69;10455221;28;20246;-79
2023/04/13 21:14:15;;;;;;;6.70;3.93;;;;;;;8.24;49.13;98780.00;10450196;28;20219;-79
2023/04/13 21:19:17;;;;;;;6.63;3.60;;;;;;;7.15;51.54;98661.22;10451337;28;20246;-79
2023/04/13 21:24:19;;;;;;;5.53;3.70;;;;;;;8.42;50.27;98844.31;10455280;28;20228;-79
2023/04/13 21:29:20;;;;;;;6.57;3.70;;;;;;;9.38;47.93;98891.75;10447765;28;20266;-79
2023/04/13 21:34:25;;;;;;;6.80;4.33;;;;;;;10.12;46.28;98889.31;10442353;28;20293;-79
2023/04/13 21:39:29;;;;;;;15.33;6.93;;;;;;;9.22;47.01;98894.72;10460956;28;20716;-79
2023/04/13 21:44:30;;;;;;;8.67;5.83;;;;;;;9.16;47.40;98896.34;10452551;28;20982;-79
2023/04/13 21:49:32;;;;;;;7.23;4.30;;;;;;;9.27;46.90;98905.63;10433960;28;20231;-79
2023/04/13 21:54:34;;;;;;;5.23;3.80;;;;;;;9.40;47.13;98916.38;10447796;28;20259;-79
2023/04/13 21:59:36;;;;;;;6.70;3.80;;;;;;;9.69;46.53;98913.66;10456261;28;20318;-79
2023/04/13 22:04:38;;;;;;;11.00;5.83;;;;;;;9.77;46.35;98924.16;10445317;28;20232;-79
2023/04/13 22:09:40;;;;;;;7.70;4.73;;;;;;;9.81;46.76;98925.38;10450595;28;20235;-79
2023/04/13 22:14:41;;;;;;;5.80;3.73;;;;;;;10.18;45.98;98935.81;10452559;28;20234;-79
2023/04/13 22:19:43;;;;;;;8.33;5.57;;;;;;;8.98;47.38;98906.72;10451296;28;20302;-79
2023/04/13 22:24:45;;;;;;;7.43;4.43;;;;;;;8.83;48.21;98907.59;10448350;28;20232;-79
2023/04/13 22:29:46;;;;;;;4.77;3.67;;;;;;;8.06;49.39;98847.88;10455870;28;20654;-79
2023/04/13 22:34:48;;;;;;;6.80;4.13;;;;;;;9.71;47.13;98941.78;10444567;28;20262;-79
2023/04/13 22:39:50;;;;;;;10.23;7.50;;;;;;;8.54;48.44;98889.09;10448783;28;20232;-79
2023/04/13 22:44:51;;;;;;;14.13;6.73;;;;;;;8.76;48.13;98912.06;10449668;28;20233;-82
2023/04/13 22:49:53;;;;;;;11.67;6.20;;;;;;;8.31;48.96;98871.47;10451763;28;20230;-81
2023/04/13 22:54:55;;;;;;;8.67;4.93;;;;;;;8.37;48.58;98891.22;10443984;28;20225;-80
2023/04/13 22:59:57;;;;;;;7.40;4.13;;;;;;;8.23;49.17;98866.28;10453892;28;20625;-81
2023/04/13 23:04:58;;;;;;;8.97;4.20;;;;;;;9.03;48.69;98953.13;10468399;28;20230;-80
2023/04/13 23:10:00;;;;;;;5.77;3.80;;;;;;;8.69;48.96;98929.00;10445859;28;20236;-80
2023/04/13 23:15:02;;;;;;;5.73;4.10;;;;;;;9.11;48.60;98962.84;10447787;28;20323;-82
2023/04/13 23:20:06;;;;;;;7.33;4.17;;;;;;;8.87;48.83;98949.94;10447477;28;20245;-81
2023/04/13 23:25:08;;;;;;;7.43;3.90;;;;;;;8.68;48.59;98944.19;10440270;28;20232;-81
2023/04/13 23:30:10;;;;;;;7.03;4.07;;;;;;;9.29;47.37;98967.66;10445655;28;20240;-80
2023/04/13 23:35:11;;;;;;;7.40;4.40;;;;;;;9.12;47.07;98974.34;10445664;28;20333;-81
2023/04/13 23:40:13;;;;;;;6.53;3.80;;;;;;;9.06;47.20;98972.44;10452722;28;20232;-80
2023/04/13 23:45:15;;;;;;;6.70;4.20;;;;;;;8.92;47.85;98974.19;10447500;28;20228;-81
2023/04/13 23:50:17;;;;;;;10.37;4.10;;;;;;;8.65;47.83;98960.59;10446889;28;20255;-81
2023/04/13 23:55:19;;;;;;;7.27;4.40;;;;;;;9.27;46.93;98987.59;10442372;28;20238;-80
